Garnett Industrial Airport (K68)
Garnett, KS
Field Elevation: 989
Lat: 38°16.64N  Long: 95°12.91W
CTAF/Unicom Freq: 122.8000
   
     For Weather-by-Phone, call 785-448-3254
Weather Advisories
7/28/2014 12:20 Z
Altimeter 30.21" Hg
Wind 010° @ 0 KT
Gusts --
Visibility 9 SM
Temperature 17° C (63° F)
Dewpoint 15° C (59° F)
Relative Humidity 87%
Density Altitude --
Condensation Altitude 2,100 feet
  Wind and Runways
Indicated Runway = 1
History
 
 
More Info
All DigiWx sites map
NOAA Forecast
 
Airport IQ 5010
(FLV) Sherman Airfield
(GRE) Greenville
 
about DigiWx
 
FAA Disclaimer: The data displayed is for advisory purposes only and is not to be used for flight planning or operations. For official data, please call 785-448-3254 to hear the current automated AWOS voice message.
  METAR K68 281220Z AUTO 01000KT 9SM 17/15 A3021